Terminal Aerodrome Forecast
Issued by NWS

Home | Current Version | Previous Version | Text Only | Print | Product List | Glossary On
Versions: 1 2 3 4 5 6 7 8 9 10 11 12 13 14 15 16 17 18 19 20 21 22 23 24
000
FTUS43 KBIS 272339
TAFMOT
TAF
KMOT 272339Z 2800/2824 02007KT 4SM -SN BR SCT025 OVC060
     FM280100 02006KT P6SM FEW020 SCT060
     FM280700 03005KT P6SM SCT015 BKN025
     FM280900 04005KT P6SM OVC015
     FM281200 08006KT P6SM OVC015
     FM281900 11007KT P6SM BKN025=

USA.gov is the U.S. government's official web portal to all federal, state and local government web resources and services.